Flight Track Log - Related Links

Times and Time Zones

All times are in EDT time to prevent confusion due to time zone crossing. See the AWE1940 flight status page for this flight to view local times or setup timezone preferences in your user account.

Time Position Orientation Groundspeed Altitude Reporting Facility
EDT Latitude Longitude Course Direction KTS MPH feet Rate Location/Type
Fri 10:55:50 PM 35.2306 -80.9392 72° East 166 191 1,600  Level Atlanta Center
Fri 10:56:08 PM 35.2453 -80.9411 354° North 158 182 2,300 1,823 Climbing Atlanta Center
Fri 10:57:09 PM 35.2925 -80.9167 23° Northeast 212 244 4,000 1,934 Climbing Atlanta Center
Fri 10:58:00 PM 35.1207 -80.6196 29° Northeast  Level FlightAware Approximate
Fri 10:58:09 PM 35.3053 -80.8397 78° East 254 292 6,200  Level Atlanta Center
Fri 10:59:00 PM 35.2199 -80.5525 30° Northeast  Level FlightAware Approximate
Fri 10:59:13 PM 35.3236 -80.7447 77° East 263 303 8,000  Level Atlanta Center
Fri 11:00:00 PM 35.3167 -80.4816 90° East  Level FlightAware Approximate
Fri 11:00:13 PM 35.3397 -80.6500 78° East 281 323 10,500  Level Atlanta Center
Fri 11:01:00 PM 35.3594 -80.3681 72° East  Level FlightAware Approximate
Fri 11:01:13 PM 35.3581 -80.5575 76° East 289 333 11,500  Level Atlanta Center
Fri 11:02:13 PM 35.3794 -80.4344 78° East 341 392 13,100 1,765 Climbing Atlanta Center
Fri 11:04:37 PM 35.4381 -80.1197 77° East 397 457 17,500 2,010 Climbing Washington Center
Fri 11:05:36 PM 35.4792 -79.9714 71° East 408 470 19,900 2,034 Climbing Washington Center
Fri 11:06:35 PM 35.5133 -79.8356 73° East 413 475 21,500 1,438 Climbing Washington Center
Fri 11:07:37 PM 35.5475 -79.6944 73° East 418 481 22,800 1,230 Climbing Washington Center
Fri 11:08:37 PM 35.5833 -79.5608 72° East 435 501 24,000 1,220 Climbing Washington Center
Fri 11:09:35 PM 35.6303 -79.3997 70° East 450 518 25,200 1,525 Climbing Washington Center
Fri 11:10:35 PM 35.7092 -79.2781 51° Northeast 443 510 27,000 1,525 Climbing Washington Center
Fri 11:11:37 PM 35.7881 -79.1539 52° Northeast 448 516 28,300 1,488 Climbing Washington Center
Fri 11:12:36 PM 35.8667 -79.0292 52° Northeast 454 522 30,000 1,600 Climbing Washington Center
Fri 11:13:37 PM 35.9575 -78.9228 43° Northeast 454 522 31,500 1,311 Climbing Washington Center
Fri 11:14:35 PM 36.0581 -78.8294 37° Northeast 442 509 32,600 915 Climbing Washington Center
Fri 11:15:35 PM 36.1567 -78.7331 38° Northeast 447 514 33,300 836 Climbing Washington Center
Fri 11:16:37 PM 36.2594 -78.6342 38° Northeast 452 520 34,300 900 Climbing Washington Center
Fri 11:17:35 PM 36.3619 -78.5350 38° Northeast 457 526 35,100 857 Climbing Washington Center
Fri 11:18:36 PM 36.4644 -78.4331 39° Northeast 457 526 36,000 793 Climbing Washington Center
Fri 11:19:36 PM 36.5650 -78.3331 39° Northeast 457 526 36,700 504 Climbing Washington Center
Fri 11:20:35 PM 36.6672 -78.2331 38° Northeast 457 526 37,000 149 Climbing Washington Center
Fri 11:21:37 PM 36.7697 -78.1331 38° Northeast 457 526 37,000  Level Washington Center
Fri 11:22:35 PM 36.8719 -78.0297 39° Northeast 462 532 37,000  Level Washington Center
Fri 11:23:36 PM 36.9742 -77.9292 38° Northeast 462 532 37,000  Level Washington Center
Fri 11:24:37 PM 37.0761 -77.8256 39° Northeast 462 532 37,000  Level Washington Center
Fri 11:25:35 PM 37.1781 -77.7242 38° Northeast 462 532 37,000  Level Washington Center
Fri 11:26:34 PM 37.2800 -77.6225 38° Northeast 462 532 37,000  Level Washington Center
Fri 11:27:35 PM 37.3819 -77.5208 38° Northeast 462 532 37,000 49 Level Washington Center
Fri 11:28:37 PM 37.4856 -77.4186 38° Northeast 467 537 37,100  Climbing Washington Center
Fri 11:29:35 PM 37.5872 -77.3164 39° Northeast 467 537 37,000 -51 Descending Washington Center
Fri 11:30:35 PM 37.6911 -77.2111 39° Northeast 467 537 37,000  Level Washington Center
Fri 11:31:36 PM 37.7925 -77.1053 40° Northeast 472 543 37,000  Level Washington Center
Fri 11:32:36 PM 37.8917 -77.0022 39° Northeast 472 543 37,000  Level Washington Center
Fri 11:33:37 PM 37.9931 -76.8986 39° Northeast 472 543 37,000  Level Washington Center
Fri 11:34:37 PM 38.0942 -76.7922 40° Northeast 472 543 37,000  Level Washington Center
Fri 11:35:35 PM 38.1953 -76.6856 40° Northeast 472 543 37,000  Level Washington Center
Fri 11:36:35 PM 38.2964 -76.5864 38° Northeast 472 543 37,000  Level Washington Center
Fri 11:37:36 PM 38.3803 -76.4950 40° Northeast 459 528 37,000  Level Washington Center
Fri 11:38:37 PM 38.4792 -76.3925 39° Northeast 454 522 37,000  Level Washington Center
Fri 11:39:35 PM 38.5797 -76.2875 39° Northeast 454 522 37,000  Level Washington Center
Fri 11:40:35 PM 38.6764 -76.1847 40° Northeast 454 522 37,000  Level Washington Center
Fri 11:41:35 PM 38.7811 -76.0789 38° Northeast 454 522 37,000  Level Washington Center
Fri 11:42:35 PM 38.8731 -75.9756 41° Northeast 454 522 37,000  Level Washington Center
Fri 11:43:35 PM 38.9733 -75.8719 39° Northeast 454 522 37,000  Level Washington Center
Fri 11:44:36 PM 39.0717 -75.7708 39° Northeast 454 522 37,000 -50 Level Washington Center
Fri 11:45:35 PM 39.1675 -75.6667 40° Northeast 449 517 36,900  Descending Washington Center
Fri 11:46:38 PM 39.2614 -75.5647 40° Northeast 449 517 37,000 50 Climbing Washington Center
Fri 11:47:36 PM 39.3572 -75.4600 40° Northeast 449 517 37,000  Level Washington Center
Fri 11:48:36 PM 39.4508 -75.3578 40° Northeast 449 517 37,000 -50 Level Washington Center
Fri 11:49:37 PM 39.5442 -75.2550 40° Northeast 449 517 36,900  Descending Washington Center
Fri 11:50:35 PM 39.6397 -75.1550 39° Northeast 444 511 37,000 50 Climbing Washington Center
Fri 11:51:36 PM 39.7331 -75.0464 42° Northeast 444 511 37,000  Level Washington Center
Fri 11:52:35 PM 39.8347 -74.9375 39° Northeast 444 511 37,000 -39 Level Washington Center
Fri 11:54:10 PM 39.9742 -74.7906 39° Northeast 451 519 36,900  Descending New York Center
Fri 11:55:10 PM 40.0750 -74.7097 32° Northeast 446 513 37,000 -254 Climbing New York Center
Fri 11:56:08 PM 40.1928 -74.6728 13° North 425 489 36,400 -850 Descending New York Center
Fri 11:57:10 PM 40.3153 -74.6253 16° North 418 481 35,300 -976 Descending New York Center
Fri 11:58:11 PM 40.4292 -74.5881 14° North 413 475 34,400 -966 Descending New York Center
Fri 11:59:08 PM 40.5406 -74.5506 14° North 419 482 33,400 -1,020 Descending New York Center
Sat 12:00:44 AM 40.7208 -74.4911 14° North 417 480 31,800 -1,154 Descending Boston Center
Sat 12:01:44 AM 40.8339 -74.4536 14° North 417 480 30,400 -1,400 Descending Boston Center
Sat 12:02:44 AM 40.9492 -74.4158 14° North 417 480 29,000 -1,250 Descending Boston Center
Sat 12:03:44 AM 41.0539 -74.3861 12° North 417 480 27,900 -1,250 Descending Boston Center
Sat 12:04:44 AM 41.1650 -74.3508 13° North 412 474 26,500 -950 Descending Boston Center
Sat 12:05:44 AM 41.2700 -74.3097 16° North 404 465 26,000 -250 Descending Boston Center
Sat 12:06:44 AM 41.3789 -74.2742 14° North 392 451 26,000  Level Boston Center
Sat 12:07:44 AM 41.4878 -74.2358 15° North 397 457 26,000 -50 Level Boston Center
Sat 12:08:44 AM 41.5947 -74.2028 13° North 397 457 25,900 -1,250 Descending Boston Center
Sat 12:09:44 AM 41.7036 -74.1642 15° North 397 457 23,500 -2,550 Descending Boston Center
Sat 12:10:44 AM 41.8167 -74.1308 12° North 391 450 20,800 -2,400 Descending Boston Center
Sat 12:11:44 AM 41.9111 -74.0944 16° North 391 450 18,700 -2,169 Descending Boston Center
Sat 12:12:54 AM 42.0408 -74.0475 15° North 377 434 16,100 -2,244 Descending Boston Center
Sat 12:13:55 AM 42.1414 -74.0136 14° North 372 428 13,800 -2,231 Descending Boston Center
Sat 12:14:55 AM 42.2275 -73.9767 18° North 314 361 11,600 -2,083 Descending Boston Center
Sat 12:15:56 AM 42.3050 -73.9447 17° North 276 318 9,600 -2,132 Descending Boston Center
Sat 12:16:56 AM 42.3806 -73.9128 17° North 281 323 7,300 -2,300 Descending Boston Center
Sat 12:17:56 AM 42.4433 -73.8892 16° North 268 308 5,000 -2,115 Descending Boston Center
Sat 12:18:58 AM 42.5250 -73.8572 16° North 267 307 3,000 -984 Descending Boston Center
Sat 12:19:58 AM 42.5856 -73.8331 16° North 215 247 3,000 -298 Level Boston Center
Sat 12:20:59 AM 42.6361 -73.8089 19° North 182 209 2,400 -787 Descending Boston Center
Sat 12:22:00 AM 42.6839 -73.8069 North 168 193 1,400 -893 Descending Boston Center
Sat 12:23:00 AM 42.7278 -73.8081 359° North 143 165 600 -800 Descending Boston Center

Login

Don't have an account? Register now (free) for customized features, flight alerts, and more!